< < Back
Terminal Aerodrome Forecast


Current Version              Previous Versions:   1  2  3  4  5  6  7  8  9  

Terminal Aerodrome Forecast

536
FTUS42 KTAE 232300
TAFDHN
TAF
KDHN 232320Z 2400/2424 01003KT P6SM BKN250
     FM241600 03006KT P6SM SCT250=



Latest METAR

647
SAUS70 KWBC 242000 RRI
MTRDHN
METAR KDHN 241953Z 33004KT 10SM CLR 24/07 A3002 RMK AO2 SLP163
T02390067


USA.gov is the U.S. government's official web portal to all federal, state and local government web resources and services.